sensor_id;sensor_type;location;lat;lon;timestamp;P1;durP1;ratioP1;P2;durP2;ratioP2
6580;SDS011;3324;50.796;7.228;2022-09-20T00:00:50;0.50;;;0.50;;
6580;SDS011;3324;50.796;7.228;2022-09-20T00:03:16;0.50;;;0.50;;
6580;SDS011;3324;50.796;7.228;2022-09-20T00:05:43;0.50;;;0.50;;
6580;SDS011;3324;50.796;7.228;2022-09-20T00:08:12;2.10;;;0.80;;
6580;SDS011;3324;50.796;7.228;2022-09-20T00:10:39;0.50;;;0.50;;
6580;SDS011;3324;50.796;7.228;2022-09-20T00:13:06;1.70;;;0.70;;
6580;SDS011;3324;50.796;7.228;2022-09-20T00:15:33;0.40;;;0.40;;
6580;SDS011;3324;50.796;7.228;2022-09-20T00:18:04;0.40;;;0.40;;
6580;SDS011;3324;50.796;7.228;2022-09-20T00:20:29;0.40;;;0.40;;
6580;SDS011;3324;50.796;7.228;2022-09-20T00:22:55;0.50;;;0.50;;
6580;SDS011;3324;50.796;7.228;2022-09-20T00:25:21;2.20;;;0.80;;
6580;SDS011;3324;50.796;7.228;2022-09-20T00:27:46;0.45;;;0.45;;
6580;SDS011;3324;50.796;7.228;2022-09-20T00:30:12;0.50;;;0.50;;
6580;SDS011;3324;50.796;7.228;2022-09-20T00:32:38;0.50;;;0.50;;
6580;SDS011;3324;50.796;7.228;2022-09-20T00:35:05;0.50;;;0.50;;
6580;SDS011;3324;50.796;7.228;2022-09-20T00:37:31;0.40;;;0.40;;
6580;SDS011;3324;50.796;7.228;2022-09-20T00:39:58;0.50;;;0.50;;
6580;SDS011;3324;50.796;7.228;2022-09-20T00:42:29;0.40;;;0.40;;
6580;SDS011;3324;50.796;7.228;2022-09-20T00:44:56;2.20;;;0.80;;
6580;SDS011;3324;50.796;7.228;2022-09-20T00:50:42;0.40;;;0.40;;
6580;SDS011;3324;50.796;7.228;2022-09-20T00:53:15;2.20;;;0.80;;
6580;SDS011;3324;50.796;7.228;2022-09-20T00:56:06;2.40;;;0.80;;
6580;SDS011;3324;50.796;7.228;2022-09-20T00:58:37;0.40;;;0.40;;
6580;SDS011;3324;50.796;7.228;2022-09-20T01:01:08;0.40;;;0.40;;
6580;SDS011;3324;50.796;7.228;2022-09-20T01:03:34;0.40;;;0.40;;
6580;SDS011;3324;50.796;7.228;2022-09-20T01:06:03;0.40;;;0.40;;
6580;SDS011;3324;50.796;7.228;2022-09-20T01:08:32;2.20;;;0.80;;
6580;SDS011;3324;50.796;7.228;2022-09-20T01:10:59;0.40;;;0.40;;
6580;SDS011;3324;50.796;7.228;2022-09-20T01:13:25;0.40;;;0.40;;
6580;SDS011;3324;50.796;7.228;2022-09-20T01:15:51;0.40;;;0.40;;
6580;SDS011;3324;50.796;7.228;2022-09-20T01:18:18;0.40;;;0.40;;
6580;SDS011;3324;50.796;7.228;2022-09-20T01:20:46;0.40;;;0.40;;
6580;SDS011;3324;50.796;7.228;2022-09-20T01:28:40;0.40;;;0.40;;
6580;SDS011;3324;50.796;7.228;2022-09-20T01:36:17;2.10;;;0.80;;
6580;SDS011;3324;50.796;7.228;2022-09-20T01:39:07;0.40;;;0.40;;
6580;SDS011;3324;50.796;7.228;2022-09-20T01:41:46;2.10;;;0.70;;
6580;SDS011;3324;50.796;7.228;2022-09-20T01:44:26;0.40;;;0.40;;
6580;SDS011;3324;50.796;7.228;2022-09-20T01:47:03;2.10;;;0.75;;
6580;SDS011;3324;50.796;7.228;2022-09-20T01:49:58;0.40;;;0.40;;
6580;SDS011;3324;50.796;7.228;2022-09-20T01:52:37;0.40;;;0.40;;
6580;SDS011;3324;50.796;7.228;2022-09-20T02:00:53;0.40;;;0.40;;
6580;SDS011;3324;50.796;7.228;2022-09-20T02:03:50;0.40;;;0.40;;
6580;SDS011;3324;50.796;7.228;2022-09-20T02:11:35;0.40;;;0.40;;
6580;SDS011;3324;50.796;7.228;2022-09-20T02:16:54;2.20;;;0.70;;
6580;SDS011;3324;50.796;7.228;2022-09-20T02:44:51;0.40;;;0.40;;
6580;SDS011;3324;50.796;7.228;2022-09-20T02:52:25;0.40;;;0.40;;
6580;SDS011;3324;50.796;7.228;2022-09-20T02:58:39;0.40;;;0.40;;
6580;SDS011;3324;50.796;7.228;2022-09-20T03:00:33;0.40;;;0.40;;
6580;SDS011;3324;50.796;7.228;2022-09-20T03:03:48;2.30;;;0.80;;
6580;SDS011;3324;50.796;7.228;2022-09-20T03:14:41;0.40;;;0.40;;
6580;SDS011;3324;50.796;7.228;2022-09-20T03:20:29;0.40;;;0.40;;
6580;SDS011;3324;50.796;7.228;2022-09-20T03:33:15;0.50;;;0.50;;
6580;SDS011;3324;50.796;7.228;2022-09-20T03:36:09;0.40;;;0.40;;
6580;SDS011;3324;50.796;7.228;2022-09-20T03:50:32;2.10;;;1.00;;
6580;SDS011;3324;50.796;7.228;2022-09-20T03:53:42;0.40;;;0.40;;
6580;SDS011;3324;50.796;7.228;2022-09-20T04:02:03;2.10;;;1.10;;
6580;SDS011;3324;50.796;7.228;2022-09-20T04:04:38;2.10;;;0.90;;
6580;SDS011;3324;50.796;7.228;2022-09-20T04:07:10;0.40;;;0.40;;
6580;SDS011;3324;50.796;7.228;2022-09-20T04:26:30;0.40;;;0.40;;
6580;SDS011;3324;50.796;7.228;2022-09-20T04:29:07;0.40;;;0.40;;
6580;SDS011;3324;50.796;7.228;2022-09-20T04:31:46;0.40;;;0.40;;
6580;SDS011;3324;50.796;7.228;2022-09-20T04:34:24;0.40;;;0.40;;
6580;SDS011;3324;50.796;7.228;2022-09-20T04:37:21;2.10;;;0.70;;
6580;SDS011;3324;50.796;7.228;2022-09-20T04:40:08;0.40;;;0.40;;
6580;SDS011;3324;50.796;7.228;2022-09-20T04:57:02;2.30;;;0.90;;
6580;SDS011;3324;50.796;7.228;2022-09-20T05:07:44;0.40;;;0.40;;
6580;SDS011;3324;50.796;7.228;2022-09-20T05:30:02;2.10;;;0.70;;
6580;SDS011;3324;50.796;7.228;2022-09-20T05:32:44;0.40;;;0.40;;
6580;SDS011;3324;50.796;7.228;2022-09-20T05:38:12;2.10;;;0.80;;
6580;SDS011;3324;50.796;7.228;2022-09-20T05:41:01;0.40;;;0.40;;
6580;SDS011;3324;50.796;7.228;2022-09-20T05:43:42;2.10;;;0.70;;
6580;SDS011;3324;50.796;7.228;2022-09-20T05:46:29;0.40;;;0.40;;
6580;SDS011;3324;50.796;7.228;2022-09-20T05:57:02;0.40;;;0.40;;
6580;SDS011;3324;50.796;7.228;2022-09-20T06:02:40;0.40;;;0.40;;
6580;SDS011;3324;50.796;7.228;2022-09-20T06:08:28;0.40;;;0.40;;
6580;SDS011;3324;50.796;7.228;2022-09-20T06:16:36;0.40;;;0.40;;
6580;SDS011;3324;50.796;7.228;2022-09-20T06:19:26;0.40;;;0.40;;
6580;SDS011;3324;50.796;7.228;2022-09-20T06:22:02;0.40;;;0.40;;
6580;SDS011;3324;50.796;7.228;2022-09-20T06:24:49;0.40;;;0.40;;
6580;SDS011;3324;50.796;7.228;2022-09-20T06:27:27;0.40;;;0.40;;
6580;SDS011;3324;50.796;7.228;2022-09-20T06:29:59;0.40;;;0.40;;
6580;SDS011;3324;50.796;7.228;2022-09-20T06:32:29;3.10;;;1.50;;
6580;SDS011;3324;50.796;7.228;2022-09-20T06:34:56;2.30;;;1.50;;
6580;SDS011;3324;50.796;7.228;2022-09-20T06:43:29;0.40;;;0.40;;
6580;SDS011;3324;50.796;7.228;2022-09-20T06:45:55;2.40;;;1.80;;
6580;SDS011;3324;50.796;7.228;2022-09-20T06:48:21;0.40;;;0.40;;
6580;SDS011;3324;50.796;7.228;2022-09-20T06:50:49;0.50;;;0.50;;
6580;SDS011;3324;50.796;7.228;2022-09-20T06:53:16;0.40;;;0.40;;
6580;SDS011;3324;50.796;7.228;2022-09-20T06:55:45;0.50;;;0.50;;
6580;SDS011;3324;50.796;7.228;2022-09-20T06:58:11;0.50;;;0.50;;
6580;SDS011;3324;50.796;7.228;2022-09-20T07:00:37;0.50;;;0.50;;
6580;SDS011;3324;50.796;7.228;2022-09-20T07:03:06;0.50;;;0.50;;
6580;SDS011;3324;50.796;7.228;2022-09-20T07:05:32;0.50;;;0.50;;
6580;SDS011;3324;50.796;7.228;2022-09-20T07:07:58;0.60;;;0.60;;
6580;SDS011;3324;50.796;7.228;2022-09-20T07:10:24;0.70;;;0.70;;
6580;SDS011;3324;50.796;7.228;2022-09-20T07:12:55;0.60;;;0.60;;
6580;SDS011;3324;50.796;7.228;2022-09-20T07:15:23;0.50;;;0.50;;
6580;SDS011;3324;50.796;7.228;2022-09-20T07:17:49;0.55;;;0.55;;
6580;SDS011;3324;50.796;7.228;2022-09-20T07:20:15;0.40;;;0.40;;
6580;SDS011;3324;50.796;7.228;2022-09-20T07:22:41;4.15;;;3.85;;
6580;SDS011;3324;50.796;7.228;2022-09-20T07:25:06;4.43;;;4.13;;
6580;SDS011;3324;50.796;7.228;2022-09-20T07:27:32;1.35;;;1.35;;
6580;SDS011;3324;50.796;7.228;2022-09-20T07:29:58;2.20;;;2.20;;
6580;SDS011;3324;50.796;7.228;2022-09-20T07:32:24;1.80;;;1.80;;
6580;SDS011;3324;50.796;7.228;2022-09-20T07:34:50;2.60;;;2.60;;
6580;SDS011;3324;50.796;7.228;2022-09-20T07:37:16;5.57;;;5.28;;
6580;SDS011;3324;50.796;7.228;2022-09-20T07:39:43;3.78;;;3.47;;
6580;SDS011;3324;50.796;7.228;2022-09-20T07:42:10;1.35;;;1.35;;
6580;SDS011;3324;50.796;7.228;2022-09-20T07:44:36;1.45;;;1.45;;
6580;SDS011;3324;50.796;7.228;2022-09-20T07:47:04;5.55;;;5.25;;
6580;SDS011;3324;50.796;7.228;2022-09-20T07:49:30;5.90;;;5.80;;
6580;SDS011;3324;50.796;7.228;2022-09-20T07:51:56;5.75;;;5.65;;
6580;SDS011;3324;50.796;7.228;2022-09-20T07:54:22;6.53;;;6.43;;
6580;SDS011;3324;50.796;7.228;2022-09-20T07:56:48;7.50;;;7.40;;
6580;SDS011;3324;50.796;7.228;2022-09-20T07:59:14;8.45;;;8.05;;
6580;SDS011;3324;50.796;7.228;2022-09-20T08:01:40;7.90;;;7.80;;
6580;SDS011;3324;50.796;7.228;2022-09-20T08:04:06;7.55;;;7.45;;
6580;SDS011;3324;50.796;7.228;2022-09-20T08:06:36;9.00;;;8.60;;
6580;SDS011;3324;50.796;7.228;2022-09-20T08:09:07;8.80;;;8.60;;
6580;SDS011;3324;50.796;7.228;2022-09-20T08:11:33;8.50;;;8.30;;
6580;SDS011;3324;50.796;7.228;2022-09-20T08:13:59;8.90;;;8.70;;
6580;SDS011;3324;50.796;7.228;2022-09-20T08:16:26;8.50;;;8.30;;
6580;SDS011;3324;50.796;7.228;2022-09-20T08:18:58;9.75;;;9.35;;
6580;SDS011;3324;50.796;7.228;2022-09-20T08:21:26;8.90;;;8.70;;
6580;SDS011;3324;50.796;7.228;2022-09-20T08:23:55;10.53;;;10.20;;
6580;SDS011;3324;50.796;7.228;2022-09-20T08:26:23;11.00;;;10.60;;
6580;SDS011;3324;50.796;7.228;2022-09-20T08:28:52;10.00;;;9.50;;
6580;SDS011;3324;50.796;7.228;2022-09-20T08:36:14;11.00;;;10.60;;
6580;SDS011;3324;50.796;7.228;2022-09-20T08:38:41;11.47;;;10.87;;
6580;SDS011;3324;50.796;7.228;2022-09-20T08:46:38;10.50;;;10.20;;
6580;SDS011;3324;50.796;7.228;2022-09-20T08:49:09;10.10;;;9.80;;
6580;SDS011;3324;50.796;7.228;2022-09-20T08:51:41;10.80;;;10.25;;
6580;SDS011;3324;50.796;7.228;2022-09-20T08:54:09;9.80;;;9.50;;
6580;SDS011;3324;50.796;7.228;2022-09-20T08:56:37;10.80;;;10.30;;
6580;SDS011;3324;50.796;7.228;2022-09-20T08:59:03;11.20;;;10.60;;
6580;SDS011;3324;50.796;7.228;2022-09-20T09:01:30;10.80;;;10.30;;
6580;SDS011;3324;50.796;7.228;2022-09-20T09:04:19;10.87;;;10.27;;
6580;SDS011;3324;50.796;7.228;2022-09-20T09:06:47;11.20;;;10.60;;
6580;SDS011;3324;50.796;7.228;2022-09-20T09:09:19;10.40;;;10.10;;
6580;SDS011;3324;50.796;7.228;2022-09-20T09:11:55;11.15;;;10.55;;
6580;SDS011;3324;50.796;7.228;2022-09-20T09:14:34;10.50;;;10.10;;
6580;SDS011;3324;50.796;7.228;2022-09-20T09:17:13;10.60;;;10.10;;
6580;SDS011;3324;50.796;7.228;2022-09-20T09:19:53;10.10;;;9.80;;
6580;SDS011;3324;50.796;7.228;2022-09-20T09:22:24;11.23;;;10.63;;
6580;SDS011;3324;50.796;7.228;2022-09-20T09:27:57;10.90;;;10.50;;
6580;SDS011;3324;50.796;7.228;2022-09-20T09:30:37;11.20;;;10.60;;
6580;SDS011;3324;50.796;7.228;2022-09-20T09:33:14;10.65;;;10.25;;
6580;SDS011;3324;50.796;7.228;2022-09-20T09:35:44;11.50;;;10.90;;
6580;SDS011;3324;50.796;7.228;2022-09-20T09:38:40;10.90;;;10.50;;
6580;SDS011;3324;50.796;7.228;2022-09-20T09:44:04;12.00;;;11.30;;
6580;SDS011;3324;50.796;7.228;2022-09-20T09:46:34;11.40;;;10.90;;
6580;SDS011;3324;50.796;7.228;2022-09-20T09:51:36;10.90;;;10.50;;
6580;SDS011;3324;50.796;7.228;2022-09-20T09:54:03;10.70;;;10.30;;
6580;SDS011;3324;50.796;7.228;2022-09-20T10:02:03;10.90;;;10.50;;
6580;SDS011;3324;50.796;7.228;2022-09-20T10:04:56;10.80;;;10.40;;
6580;SDS011;3324;50.796;7.228;2022-09-20T10:07:43;11.20;;;10.70;;
6580;SDS011;3324;50.796;7.228;2022-09-20T10:18:26;11.30;;;10.80;;
6580;SDS011;3324;50.796;7.228;2022-09-20T10:21:25;11.00;;;10.60;;
6580;SDS011;3324;50.796;7.228;2022-09-20T10:27:26;11.02;;;10.60;;
6580;SDS011;3324;50.796;7.228;2022-09-20T10:30:07;11.50;;;10.80;;
6580;SDS011;3324;50.796;7.228;2022-09-20T10:37:57;10.70;;;10.30;;
6580;SDS011;3324;50.796;7.228;2022-09-20T10:49:19;10.70;;;10.30;;
6580;SDS011;3324;50.796;7.228;2022-09-20T10:57:42;11.70;;;11.00;;
6580;SDS011;3324;50.796;7.228;2022-09-20T11:08:36;10.75;;;10.35;;
6580;SDS011;3324;50.796;7.228;2022-09-20T11:17:10;10.70;;;10.30;;
6580;SDS011;3324;50.796;7.228;2022-09-20T11:22:39;11.60;;;10.90;;
6580;SDS011;3324;50.796;7.228;2022-09-20T11:25:27;11.20;;;10.70;;
6580;SDS011;3324;50.796;7.228;2022-09-20T11:28:15;11.90;;;11.20;;
6580;SDS011;3324;50.796;7.228;2022-09-20T11:30:52;11.77;;;11.07;;
6580;SDS011;3324;50.796;7.228;2022-09-20T11:33:27;11.67;;;10.97;;
6580;SDS011;3324;50.796;7.228;2022-09-20T11:35:59;11.20;;;10.70;;
6580;SDS011;3324;50.796;7.228;2022-09-20T11:38:36;11.30;;;10.80;;
6580;SDS011;3324;50.796;7.228;2022-09-20T11:41:32;11.20;;;10.70;;
6580;SDS011;3324;50.796;7.228;2022-09-20T11:44:05;11.20;;;10.70;;
6580;SDS011;3324;50.796;7.228;2022-09-20T11:46:37;11.70;;;11.10;;
6580;SDS011;3324;50.796;7.228;2022-09-20T11:49:12;12.20;;;11.40;;
6580;SDS011;3324;50.796;7.228;2022-09-20T11:54:55;11.90;;;11.20;;
6580;SDS011;3324;50.796;7.228;2022-09-20T11:57:42;11.20;;;10.70;;
6580;SDS011;3324;50.796;7.228;2022-09-20T12:00:09;10.80;;;10.40;;
6580;SDS011;3324;50.796;7.228;2022-09-20T12:05:22;11.10;;;10.60;;
6580;SDS011;3324;50.796;7.228;2022-09-20T12:07:58;11.63;;;10.93;;
6580;SDS011;3324;50.796;7.228;2022-09-20T12:10:27;11.00;;;10.50;;
6580;SDS011;3324;50.796;7.228;2022-09-20T12:12:57;11.70;;;11.00;;
6580;SDS011;3324;50.796;7.228;2022-09-20T12:15:36;11.60;;;10.90;;
6580;SDS011;3324;50.796;7.228;2022-09-20T12:31:35;11.20;;;10.70;;
6580;SDS011;3324;50.796;7.228;2022-09-20T12:33:59;11.60;;;10.90;;
6580;SDS011;3324;50.796;7.228;2022-09-20T12:39:20;11.20;;;10.70;;
6580;SDS011;3324;50.796;7.228;2022-09-20T12:41:58;11.23;;;10.73;;
6580;SDS011;3324;50.796;7.228;2022-09-20T12:44:39;11.80;;;11.10;;
6580;SDS011;3324;50.796;7.228;2022-09-20T13:00:46;10.90;;;10.50;;
6580;SDS011;3324;50.796;7.228;2022-09-20T13:05:44;11.10;;;10.60;;
6580;SDS011;3324;50.796;7.228;2022-09-20T13:10:42;11.10;;;10.60;;
6580;SDS011;3324;50.796;7.228;2022-09-20T13:13:35;11.20;;;10.70;;
6580;SDS011;3324;50.796;7.228;2022-09-20T13:16:05;11.80;;;11.10;;
6580;SDS011;3324;50.796;7.228;2022-09-20T13:18:32;11.20;;;10.70;;
6580;SDS011;3324;50.796;7.228;2022-09-20T13:21:00;11.20;;;10.70;;
6580;SDS011;3324;50.796;7.228;2022-09-20T13:23:30;11.80;;;11.10;;
6580;SDS011;3324;50.796;7.228;2022-09-20T13:26:09;11.05;;;10.55;;
6580;SDS011;3324;50.796;7.228;2022-09-20T13:28:48;11.10;;;10.60;;
6580;SDS011;3324;50.796;7.228;2022-09-20T13:33:45;11.20;;;10.70;;
6580;SDS011;3324;50.796;7.228;2022-09-20T13:36:11;10.90;;;10.50;;
6580;SDS011;3324;50.796;7.228;2022-09-20T13:38:37;11.20;;;10.70;;
6580;SDS011;3324;50.796;7.228;2022-09-20T13:41:07;11.80;;;11.10;;
6580;SDS011;3324;50.796;7.228;2022-09-20T13:43:39;11.20;;;10.70;;
6580;SDS011;3324;50.796;7.228;2022-09-20T13:46:13;11.20;;;10.70;;
6580;SDS011;3324;50.796;7.228;2022-09-20T13:48:40;11.20;;;10.70;;
6580;SDS011;3324;50.796;7.228;2022-09-20T13:51:16;11.20;;;10.70;;
6580;SDS011;3324;50.796;7.228;2022-09-20T13:53:43;12.20;;;11.40;;
6580;SDS011;3324;50.796;7.228;2022-09-20T13:56:42;11.80;;;11.10;;
6580;SDS011;3324;50.796;7.228;2022-09-20T13:59:03;11.30;;;10.80;;
6580;SDS011;3324;50.796;7.228;2022-09-20T14:01:33;12.10;;;11.30;;
6580;SDS011;3324;50.796;7.228;2022-09-20T14:04:03;12.10;;;11.30;;
6580;SDS011;3324;50.796;7.228;2022-09-20T14:06:31;12.40;;;11.60;;
6580;SDS011;3324;50.796;7.228;2022-09-20T14:08:58;11.30;;;10.80;;
6580;SDS011;3324;50.796;7.228;2022-09-20T14:11:29;11.27;;;10.77;;
6580;SDS011;3324;50.796;7.228;2022-09-20T14:13:58;11.90;;;11.10;;
6580;SDS011;3324;50.796;7.228;2022-09-20T14:16:32;11.20;;;10.70;;
6580;SDS011;3324;50.796;7.228;2022-09-20T14:19:02;11.80;;;11.10;;
6580;SDS011;3324;50.796;7.228;2022-09-20T14:21:32;11.70;;;11.00;;
6580;SDS011;3324;50.796;7.228;2022-09-20T14:31:59;11.10;;;10.60;;
6580;SDS011;3324;50.796;7.228;2022-09-20T14:34:29;11.67;;;10.97;;
6580;SDS011;3324;50.796;7.228;2022-09-20T14:37:05;11.70;;;11.00;;
6580;SDS011;3324;50.796;7.228;2022-09-20T14:39:42;11.10;;;10.60;;
6580;SDS011;3324;50.796;7.228;2022-09-20T14:45:29;11.20;;;10.70;;
6580;SDS011;3324;50.796;7.228;2022-09-20T14:47:58;11.40;;;10.80;;
6580;SDS011;3324;50.796;7.228;2022-09-20T14:53:03;11.30;;;10.70;;
6580;SDS011;3324;50.796;7.228;2022-09-20T14:55:36;10.70;;;10.30;;
6580;SDS011;3324;50.796;7.228;2022-09-20T14:58:06;11.30;;;10.70;;
6580;SDS011;3324;50.796;7.228;2022-09-20T15:00:48;10.70;;;10.30;;
6580;SDS011;3324;50.796;7.228;2022-09-20T15:03:39;10.70;;;10.30;;
6580;SDS011;3324;50.796;7.228;2022-09-20T15:06:10;10.30;;;9.90;;
6580;SDS011;3324;50.796;7.228;2022-09-20T15:08:36;10.50;;;10.10;;
6580;SDS011;3324;50.796;7.228;2022-09-20T15:11:02;10.40;;;10.00;;
6580;SDS011;3324;50.796;7.228;2022-09-20T15:13:28;10.60;;;10.20;;
6580;SDS011;3324;50.796;7.228;2022-09-20T15:15:54;11.60;;;10.90;;
6580;SDS011;3324;50.796;7.228;2022-09-20T15:18:20;10.60;;;10.20;;
6580;SDS011;3324;50.796;7.228;2022-09-20T15:20:49;10.10;;;9.80;;
6580;SDS011;3324;50.796;7.228;2022-09-20T15:23:15;9.80;;;9.50;;
6580;SDS011;3324;50.796;7.228;2022-09-20T15:25:41;9.80;;;9.50;;
6580;SDS011;3324;50.796;7.228;2022-09-20T15:28:14;10.10;;;9.80;;
6580;SDS011;3324;50.796;7.228;2022-09-20T15:30:43;9.70;;;9.40;;
6580;SDS011;3324;50.796;7.228;2022-09-20T15:33:10;9.90;;;9.60;;
6580;SDS011;3324;50.796;7.228;2022-09-20T15:35:37;10.30;;;9.90;;
6580;SDS011;3324;50.796;7.228;2022-09-20T15:38:03;9.70;;;9.40;;
6580;SDS011;3324;50.796;7.228;2022-09-20T15:40:32;9.80;;;9.50;;
6580;SDS011;3324;50.796;7.228;2022-09-20T15:42:59;9.70;;;9.40;;
6580;SDS011;3324;50.796;7.228;2022-09-20T15:45:24;9.90;;;9.60;;
6580;SDS011;3324;50.796;7.228;2022-09-20T15:47:51;9.90;;;9.60;;
6580;SDS011;3324;50.796;7.228;2022-09-20T15:50:19;9.70;;;9.40;;
6580;SDS011;3324;50.796;7.228;2022-09-20T15:52:47;10.00;;;9.70;;
6580;SDS011;3324;50.796;7.228;2022-09-20T15:55:15;9.90;;;9.60;;
6580;SDS011;3324;50.796;7.228;2022-09-20T15:57:44;9.90;;;9.60;;
6580;SDS011;3324;50.796;7.228;2022-09-20T16:00:11;9.60;;;9.30;;
6580;SDS011;3324;50.796;7.228;2022-09-20T16:02:37;9.80;;;9.50;;
6580;SDS011;3324;50.796;7.228;2022-09-20T16:05:03;10.10;;;9.80;;
6580;SDS011;3324;50.796;7.228;2022-09-20T16:07:29;9.50;;;9.20;;
6580;SDS011;3324;50.796;7.228;2022-09-20T16:09:55;9.60;;;9.30;;
6580;SDS011;3324;50.796;7.228;2022-09-20T16:12:21;10.30;;;9.80;;
6580;SDS011;3324;50.796;7.228;2022-09-20T16:14:48;10.60;;;10.10;;
6580;SDS011;3324;50.796;7.228;2022-09-20T16:17:15;10.77;;;10.27;;
6580;SDS011;3324;50.796;7.228;2022-09-20T16:22:08;10.40;;;10.10;;
6580;SDS011;3324;50.796;7.228;2022-09-20T16:24:36;10.40;;;10.10;;
6580;SDS011;3324;50.796;7.228;2022-09-20T16:27:02;10.00;;;9.70;;
6580;SDS011;3324;50.796;7.228;2022-09-20T16:29:30;10.50;;;10.00;;
6580;SDS011;3324;50.796;7.228;2022-09-20T16:31:56;10.40;;;9.90;;
6580;SDS011;3324;50.796;7.228;2022-09-20T16:34:23;10.55;;;10.05;;
6580;SDS011;3324;50.796;7.228;2022-09-20T16:36:57;9.80;;;9.50;;
6580;SDS011;3324;50.796;7.228;2022-09-20T16:39:25;10.37;;;9.87;;
6580;SDS011;3324;50.796;7.228;2022-09-20T16:41:52;9.70;;;9.40;;
6580;SDS011;3324;50.796;7.228;2022-09-20T16:44:29;9.90;;;9.60;;
6580;SDS011;3324;50.796;7.228;2022-09-20T16:47:02;10.00;;;9.70;;
6580;SDS011;3324;50.796;7.228;2022-09-20T16:49:31;9.50;;;9.10;;
6580;SDS011;3324;50.796;7.228;2022-09-20T16:51:58;9.30;;;9.10;;
6580;SDS011;3324;50.796;7.228;2022-09-20T16:54:24;10.60;;;10.10;;
6580;SDS011;3324;50.796;7.228;2022-09-20T16:56:50;9.40;;;9.20;;
6580;SDS011;3324;50.796;7.228;2022-09-20T16:59:18;9.75;;;9.45;;
6580;SDS011;3324;50.796;7.228;2022-09-20T17:01:46;10.00;;;9.70;;
6580;SDS011;3324;50.796;7.228;2022-09-20T17:04:12;9.70;;;9.40;;
6580;SDS011;3324;50.796;7.228;2022-09-20T17:06:39;9.40;;;9.20;;
6580;SDS011;3324;50.796;7.228;2022-09-20T17:09:07;9.90;;;9.60;;
6580;SDS011;3324;50.796;7.228;2022-09-20T17:11:34;8.90;;;8.70;;
6580;SDS011;3324;50.796;7.228;2022-09-20T17:14:02;10.57;;;10.07;;
6580;SDS011;3324;50.796;7.228;2022-09-20T17:16:30;10.40;;;9.90;;
6580;SDS011;3324;50.796;7.228;2022-09-20T17:18:59;9.77;;;9.38;;
6580;SDS011;3324;50.796;7.228;2022-09-20T17:21:26;9.30;;;9.10;;
6580;SDS011;3324;50.796;7.228;2022-09-20T17:23:53;9.65;;;9.35;;
6580;SDS011;3324;50.796;7.228;2022-09-20T17:26:25;10.73;;;10.23;;
6580;SDS011;3324;50.796;7.228;2022-09-20T17:28:55;9.00;;;8.80;;
6580;SDS011;3324;50.796;7.228;2022-09-20T17:31:33;9.90;;;9.50;;
6580;SDS011;3324;50.796;7.228;2022-09-20T17:34:00;9.00;;;8.80;;
6580;SDS011;3324;50.796;7.228;2022-09-20T17:36:32;9.10;;;8.90;;
6580;SDS011;3324;50.796;7.228;2022-09-20T17:39:09;9.63;;;9.20;;
6580;SDS011;3324;50.796;7.228;2022-09-20T17:41:37;8.70;;;8.50;;
6580;SDS011;3324;50.796;7.228;2022-09-20T17:44:05;9.20;;;8.80;;
6580;SDS011;3324;50.796;7.228;2022-09-20T17:46:52;9.10;;;8.70;;
6580;SDS011;3324;50.796;7.228;2022-09-20T17:49:21;7.40;;;7.30;;
6580;SDS011;3324;50.796;7.228;2022-09-20T17:51:49;9.80;;;9.40;;
6580;SDS011;3324;50.796;7.228;2022-09-20T17:54:16;8.50;;;8.30;;
6580;SDS011;3324;50.796;7.228;2022-09-20T17:56:49;8.50;;;8.30;;
6580;SDS011;3324;50.796;7.228;2022-09-20T17:59:17;8.10;;;8.00;;
6580;SDS011;3324;50.796;7.228;2022-09-20T18:01:44;8.60;;;8.40;;
6580;SDS011;3324;50.796;7.228;2022-09-20T18:04:11;8.30;;;8.10;;
6580;SDS011;3324;50.796;7.228;2022-09-20T18:06:44;8.50;;;8.30;;
6580;SDS011;3324;50.796;7.228;2022-09-20T18:09:13;9.27;;;8.88;;
6580;SDS011;3324;50.796;7.228;2022-09-20T18:11:41;8.80;;;8.40;;
6580;SDS011;3324;50.796;7.228;2022-09-20T18:14:10;9.40;;;8.90;;
6580;SDS011;3324;50.796;7.228;2022-09-20T18:16:37;9.40;;;9.00;;
6580;SDS011;3324;50.796;7.228;2022-09-20T18:19:03;9.90;;;9.40;;
6580;SDS011;3324;50.796;7.228;2022-09-20T18:21:30;8.32;;;8.13;;
6580;SDS011;3324;50.796;7.228;2022-09-20T18:23:58;8.32;;;8.13;;
6580;SDS011;3324;50.796;7.228;2022-09-20T18:26:24;7.60;;;7.50;;
6580;SDS011;3324;50.796;7.228;2022-09-20T18:28:52;9.90;;;9.40;;
6580;SDS011;3324;50.796;7.228;2022-09-20T18:31:20;7.20;;;7.10;;
6580;SDS011;3324;50.796;7.228;2022-09-20T18:33:50;8.03;;;7.73;;
6580;SDS011;3324;50.796;7.228;2022-09-20T18:36:16;8.50;;;8.20;;
6580;SDS011;3324;50.796;7.228;2022-09-20T18:38:45;7.50;;;7.40;;
6580;SDS011;3324;50.796;7.228;2022-09-20T18:41:12;6.80;;;6.70;;
6580;SDS011;3324;50.796;7.228;2022-09-20T18:43:38;7.00;;;6.90;;
6580;SDS011;3324;50.796;7.228;2022-09-20T18:46:10;5.90;;;5.80;;
6580;SDS011;3324;50.796;7.228;2022-09-20T18:48:37;5.30;;;5.20;;
6580;SDS011;3324;50.796;7.228;2022-09-20T18:51:04;6.00;;;5.90;;
6580;SDS011;3324;50.796;7.228;2022-09-20T18:53:32;6.82;;;6.53;;
6580;SDS011;3324;50.796;7.228;2022-09-20T18:58:31;5.80;;;5.70;;
6580;SDS011;3324;50.796;7.228;2022-09-20T19:03:37;4.72;;;4.43;;
6580;SDS011;3324;50.796;7.228;2022-09-20T19:06:16;1.37;;;1.37;;
6580;SDS011;3324;50.796;7.228;2022-09-20T19:08:46;0.93;;;0.93;;
6580;SDS011;3324;50.796;7.228;2022-09-20T19:11:25;0.40;;;0.40;;
6580;SDS011;3324;50.796;7.228;2022-09-20T19:13:58;0.30;;;0.30;;
6580;SDS011;3324;50.796;7.228;2022-09-20T19:16:34;2.60;;;2.40;;
6580;SDS011;3324;50.796;7.228;2022-09-20T19:22:17;0.60;;;0.60;;
6580;SDS011;3324;50.796;7.228;2022-09-20T19:24:50;0.30;;;0.30;;
6580;SDS011;3324;50.796;7.228;2022-09-20T19:27:25;0.30;;;0.30;;
6580;SDS011;3324;50.796;7.228;2022-09-20T19:29:51;0.50;;;0.50;;
6580;SDS011;3324;50.796;7.228;2022-09-20T19:32:17;0.70;;;0.70;;
6580;SDS011;3324;50.796;7.228;2022-09-20T19:34:48;2.45;;;2.25;;
6580;SDS011;3324;50.796;7.228;2022-09-20T19:37:29;0.40;;;0.40;;
6580;SDS011;3324;50.796;7.228;2022-09-20T19:40:30;0.80;;;0.80;;
6580;SDS011;3324;50.796;7.228;2022-09-20T19:46:02;0.30;;;0.30;;
6580;SDS011;3324;50.796;7.228;2022-09-20T19:48:48;0.40;;;0.40;;
6580;SDS011;3324;50.796;7.228;2022-09-20T19:51:26;2.88;;;2.67;;
6580;SDS011;3324;50.796;7.228;2022-09-20T19:53:55;2.75;;;2.55;;
6580;SDS011;3324;50.796;7.228;2022-09-20T19:56:22;2.40;;;2.20;;
6580;SDS011;3324;50.796;7.228;2022-09-20T19:58:50;0.40;;;0.40;;
6580;SDS011;3324;50.796;7.228;2022-09-20T20:01:26;0.30;;;0.30;;
6580;SDS011;3324;50.796;7.228;2022-09-20T20:03:52;0.30;;;0.30;;
6580;SDS011;3324;50.796;7.228;2022-09-20T20:06:35;0.30;;;0.30;;
6580;SDS011;3324;50.796;7.228;2022-09-20T20:09:15;0.30;;;0.30;;
6580;SDS011;3324;50.796;7.228;2022-09-20T20:11:51;2.28;;;1.90;;
6580;SDS011;3324;50.796;7.228;2022-09-20T20:25:58;0.30;;;0.30;;
6580;SDS011;3324;50.796;7.228;2022-09-20T20:28:27;0.30;;;0.30;;
6580;SDS011;3324;50.796;7.228;2022-09-20T20:30:53;0.20;;;0.20;;
6580;SDS011;3324;50.796;7.228;2022-09-20T20:33:19;0.20;;;0.20;;
6580;SDS011;3324;50.796;7.228;2022-09-20T20:35:52;2.10;;;1.20;;
6580;SDS011;3324;50.796;7.228;2022-09-20T20:38:19;0.20;;;0.10;;
6580;SDS011;3324;50.796;7.228;2022-09-20T20:41:03;2.10;;;1.30;;
6580;SDS011;3324;50.796;7.228;2022-09-20T20:43:37;0.20;;;0.10;;
6580;SDS011;3324;50.796;7.228;2022-09-20T20:46:06;0.20;;;0.10;;
6580;SDS011;3324;50.796;7.228;2022-09-20T20:48:33;2.10;;;1.20;;
6580;SDS011;3324;50.796;7.228;2022-09-20T20:51:01;0.20;;;0.20;;
6580;SDS011;3324;50.796;7.228;2022-09-20T20:53:44;2.00;;;0.70;;
6580;SDS011;3324;50.796;7.228;2022-09-20T20:56:15;0.20;;;0.20;;
6580;SDS011;3324;50.796;7.228;2022-09-20T20:58:43;2.00;;;0.60;;
6580;SDS011;3324;50.796;7.228;2022-09-20T21:03:34;1.90;;;0.90;;
6580;SDS011;3324;50.796;7.228;2022-09-20T21:06:01;0.10;;;0.10;;
6580;SDS011;3324;50.796;7.228;2022-09-20T21:08:32;1.90;;;0.70;;
6580;SDS011;3324;50.796;7.228;2022-09-20T21:11:03;0.40;;;0.40;;
6580;SDS011;3324;50.796;7.228;2022-09-20T21:13:33;0.50;;;0.50;;
6580;SDS011;3324;50.796;7.228;2022-09-20T21:16:18;2.10;;;0.85;;
6580;SDS011;3324;50.796;7.228;2022-09-20T21:18:46;2.00;;;2.00;;